sensor_id;sensor_type;location;lat;lon;timestamp;P1;durP1;ratioP1;P2;durP2;ratioP2
12212;SDS011;6169;44.158;22.788;2023-03-01T00:02:45;43.50;;;25.10;;
12212;SDS011;6169;44.158;22.788;2023-03-01T00:07:47;50.53;;;28.07;;
12212;SDS011;6169;44.158;22.788;2023-03-01T00:12:49;51.00;;;28.60;;
12212;SDS011;6169;44.158;22.788;2023-03-01T00:17:53;51.50;;;28.63;;
12212;SDS011;6169;44.158;22.788;2023-03-01T00:22:55;60.87;;;29.53;;
12212;SDS011;6169;44.158;22.788;2023-03-01T00:27:58;50.10;;;26.77;;
12212;SDS011;6169;44.158;22.788;2023-03-01T00:33:02;48.33;;;27.00;;
12212;SDS011;6169;44.158;22.788;2023-03-01T00:38:04;53.43;;;28.23;;
12212;SDS011;6169;44.158;22.788;2023-03-01T00:43:07;50.70;;;26.60;;
12212;SDS011;6169;44.158;22.788;2023-03-01T00:48:11;47.93;;;26.50;;
12212;SDS011;6169;44.158;22.788;2023-03-01T00:53:14;49.97;;;26.50;;
12212;SDS011;6169;44.158;22.788;2023-03-01T00:58:16;53.30;;;27.30;;
12212;SDS011;6169;44.158;22.788;2023-03-01T01:03:20;43.43;;;23.77;;
12212;SDS011;6169;44.158;22.788;2023-03-01T01:08:25;51.20;;;23.43;;
12212;SDS011;6169;44.158;22.788;2023-03-01T01:13:27;46.17;;;25.97;;
12212;SDS011;6169;44.158;22.788;2023-03-01T01:18:31;51.43;;;26.00;;
12212;SDS011;6169;44.158;22.788;2023-03-01T01:23:33;42.03;;;24.23;;
12212;SDS011;6169;44.158;22.788;2023-03-01T01:28:36;48.43;;;26.27;;
12212;SDS011;6169;44.158;22.788;2023-03-01T01:33:40;49.30;;;25.10;;
12212;SDS011;6169;44.158;22.788;2023-03-01T01:38:43;43.67;;;24.73;;
12212;SDS011;6169;44.158;22.788;2023-03-01T01:43:46;42.40;;;23.93;;
12212;SDS011;6169;44.158;22.788;2023-03-01T01:48:52;42.10;;;25.43;;
12212;SDS011;6169;44.158;22.788;2023-03-01T01:53:59;45.40;;;25.53;;
12212;SDS011;6169;44.158;22.788;2023-03-01T01:59:02;45.63;;;25.90;;
12212;SDS011;6169;44.158;22.788;2023-03-01T02:04:06;49.40;;;26.13;;
12212;SDS011;6169;44.158;22.788;2023-03-01T02:09:10;44.73;;;26.40;;
12212;SDS011;6169;44.158;22.788;2023-03-01T02:14:15;46.60;;;27.43;;
12212;SDS011;6169;44.158;22.788;2023-03-01T02:19:22;58.13;;;30.63;;
12212;SDS011;6169;44.158;22.788;2023-03-01T02:24:37;48.50;;;27.57;;
12212;SDS011;6169;44.158;22.788;2023-03-01T02:29:52;62.33;;;32.17;;
12212;SDS011;6169;44.158;22.788;2023-03-01T02:34:54;49.67;;;27.43;;
12212;SDS011;6169;44.158;22.788;2023-03-01T02:39:58;59.97;;;29.90;;
12212;SDS011;6169;44.158;22.788;2023-03-01T02:45:06;54.60;;;27.50;;
12212;SDS011;6169;44.158;22.788;2023-03-01T02:50:18;57.10;;;28.60;;
12212;SDS011;6169;44.158;22.788;2023-03-01T02:55:36;59.83;;;30.57;;
12212;SDS011;6169;44.158;22.788;2023-03-01T03:00:41;52.47;;;27.97;;
12212;SDS011;6169;44.158;22.788;2023-03-01T03:05:47;53.57;;;27.37;;
12212;SDS011;6169;44.158;22.788;2023-03-01T03:10:50;56.23;;;28.57;;
12212;SDS011;6169;44.158;22.788;2023-03-01T03:15:53;51.53;;;27.47;;
12212;SDS011;6169;44.158;22.788;2023-03-01T03:20:56;60.93;;;30.73;;
12212;SDS011;6169;44.158;22.788;2023-03-01T03:25:59;56.63;;;28.97;;
12212;SDS011;6169;44.158;22.788;2023-03-01T03:31:03;49.93;;;27.57;;
12212;SDS011;6169;44.158;22.788;2023-03-01T03:36:08;58.97;;;30.47;;
12212;SDS011;6169;44.158;22.788;2023-03-01T03:41:13;64.93;;;33.00;;
12212;SDS011;6169;44.158;22.788;2023-03-01T03:46:16;53.60;;;28.70;;
12212;SDS011;6169;44.158;22.788;2023-03-01T03:51:19;57.77;;;31.13;;
12212;SDS011;6169;44.158;22.788;2023-03-01T03:56:22;62.33;;;32.27;;
12212;SDS011;6169;44.158;22.788;2023-03-01T04:01:27;60.73;;;31.90;;
12212;SDS011;6169;44.158;22.788;2023-03-01T04:06:30;62.37;;;31.87;;
12212;SDS011;6169;44.158;22.788;2023-03-01T04:11:33;56.70;;;30.57;;
12212;SDS011;6169;44.158;22.788;2023-03-01T04:16:36;61.03;;;31.20;;
12212;SDS011;6169;44.158;22.788;2023-03-01T04:21:39;55.37;;;29.60;;
12212;SDS011;6169;44.158;22.788;2023-03-01T04:26:41;58.57;;;29.90;;
12212;SDS011;6169;44.158;22.788;2023-03-01T04:31:45;61.30;;;33.33;;
12212;SDS011;6169;44.158;22.788;2023-03-01T04:36:47;59.93;;;31.90;;
12212;SDS011;6169;44.158;22.788;2023-03-01T04:41:49;53.47;;;30.00;;
12212;SDS011;6169;44.158;22.788;2023-03-01T04:46:54;66.53;;;32.27;;
12212;SDS011;6169;44.158;22.788;2023-03-01T04:51:56;67.93;;;32.33;;
12212;SDS011;6169;44.158;22.788;2023-03-01T04:57:02;58.30;;;31.97;;
12212;SDS011;6169;44.158;22.788;2023-03-01T05:02:06;68.63;;;31.90;;
12212;SDS011;6169;44.158;22.788;2023-03-01T05:07:08;67.37;;;34.97;;
12212;SDS011;6169;44.158;22.788;2023-03-01T05:12:13;65.73;;;33.17;;
12212;SDS011;6169;44.158;22.788;2023-03-01T05:17:17;65.03;;;34.23;;
12212;SDS011;6169;44.158;22.788;2023-03-01T05:22:19;60.37;;;32.23;;
12212;SDS011;6169;44.158;22.788;2023-03-01T05:27:21;72.80;;;33.73;;
12212;SDS011;6169;44.158;22.788;2023-03-01T05:32:26;61.20;;;31.73;;
12212;SDS011;6169;44.158;22.788;2023-03-01T05:37:32;52.23;;;30.87;;
12212;SDS011;6169;44.158;22.788;2023-03-01T05:42:36;65.73;;;33.57;;
12212;SDS011;6169;44.158;22.788;2023-03-01T05:47:40;55.57;;;30.23;;
12212;SDS011;6169;44.158;22.788;2023-03-01T05:52:44;52.80;;;27.60;;
12212;SDS011;6169;44.158;22.788;2023-03-01T05:57:47;56.77;;;28.40;;
12212;SDS011;6169;44.158;22.788;2023-03-01T06:02:52;48.67;;;24.53;;
12212;SDS011;6169;44.158;22.788;2023-03-01T06:07:56;43.80;;;23.57;;
12212;SDS011;6169;44.158;22.788;2023-03-01T06:13:01;43.53;;;23.87;;
12212;SDS011;6169;44.158;22.788;2023-03-01T06:18:04;40.87;;;22.10;;
12212;SDS011;6169;44.158;22.788;2023-03-01T06:23:07;38.57;;;20.83;;
12212;SDS011;6169;44.158;22.788;2023-03-01T06:28:09;39.23;;;20.67;;
12212;SDS011;6169;44.158;22.788;2023-03-01T06:33:13;39.67;;;22.57;;
12212;SDS011;6169;44.158;22.788;2023-03-01T06:38:15;31.87;;;18.30;;
12212;SDS011;6169;44.158;22.788;2023-03-01T06:43:19;41.50;;;23.80;;
12212;SDS011;6169;44.158;22.788;2023-03-01T06:48:23;46.53;;;24.67;;
12212;SDS011;6169;44.158;22.788;2023-03-01T06:53:25;53.53;;;30.13;;
12212;SDS011;6169;44.158;22.788;2023-03-01T06:58:27;35.40;;;19.10;;
12212;SDS011;6169;44.158;22.788;2023-03-01T07:03:31;32.70;;;18.53;;
12212;SDS011;6169;44.158;22.788;2023-03-01T07:08:34;32.20;;;18.97;;
12212;SDS011;6169;44.158;22.788;2023-03-01T07:13:36;34.77;;;19.87;;
12212;SDS011;6169;44.158;22.788;2023-03-01T07:18:40;40.67;;;21.43;;
12212;SDS011;6169;44.158;22.788;2023-03-01T07:23:42;38.73;;;22.93;;
12212;SDS011;6169;44.158;22.788;2023-03-01T07:28:45;30.50;;;19.37;;
12212;SDS011;6169;44.158;22.788;2023-03-01T07:33:48;31.73;;;20.63;;
12212;SDS011;6169;44.158;22.788;2023-03-01T07:38:51;35.40;;;20.17;;
12212;SDS011;6169;44.158;22.788;2023-03-01T07:43:53;40.67;;;22.97;;
12212;SDS011;6169;44.158;22.788;2023-03-01T07:48:57;37.63;;;21.27;;
12212;SDS011;6169;44.158;22.788;2023-03-01T07:53:59;33.43;;;20.80;;
12212;SDS011;6169;44.158;22.788;2023-03-01T07:59:02;38.83;;;21.40;;
12212;SDS011;6169;44.158;22.788;2023-03-01T08:04:06;35.07;;;22.93;;
12212;SDS011;6169;44.158;22.788;2023-03-01T08:09:09;41.10;;;24.07;;
12212;SDS011;6169;44.158;22.788;2023-03-01T08:14:11;33.43;;;21.90;;
12212;SDS011;6169;44.158;22.788;2023-03-01T08:19:15;32.50;;;19.27;;
12212;SDS011;6169;44.158;22.788;2023-03-01T08:24:17;33.87;;;21.63;;
12212;SDS011;6169;44.158;22.788;2023-03-01T08:29:20;34.67;;;20.07;;
12212;SDS011;6169;44.158;22.788;2023-03-01T08:34:24;37.87;;;26.13;;
12212;SDS011;6169;44.158;22.788;2023-03-01T08:39:26;32.20;;;19.10;;
12212;SDS011;6169;44.158;22.788;2023-03-01T08:44:29;38.70;;;20.83;;
12212;SDS011;6169;44.158;22.788;2023-03-01T08:49:33;32.47;;;19.17;;
12212;SDS011;6169;44.158;22.788;2023-03-01T08:54:35;30.27;;;18.53;;
12212;SDS011;6169;44.158;22.788;2023-03-01T08:59:37;33.73;;;19.67;;
12212;SDS011;6169;44.158;22.788;2023-03-01T09:04:42;31.13;;;17.50;;
12212;SDS011;6169;44.158;22.788;2023-03-01T09:09:45;27.23;;;17.10;;
12212;SDS011;6169;44.158;22.788;2023-03-01T09:14:47;30.33;;;17.53;;
12212;SDS011;6169;44.158;22.788;2023-03-01T09:19:51;30.00;;;18.47;;
12212;SDS011;6169;44.158;22.788;2023-03-01T09:24:53;30.83;;;18.33;;
12212;SDS011;6169;44.158;22.788;2023-03-01T09:29:56;34.63;;;19.13;;
12212;SDS011;6169;44.158;22.788;2023-03-01T09:35:00;33.30;;;19.10;;
12212;SDS011;6169;44.158;22.788;2023-03-01T09:40:05;36.57;;;23.50;;
12212;SDS011;6169;44.158;22.788;2023-03-01T09:45:18;33.30;;;20.23;;
12212;SDS011;6169;44.158;22.788;2023-03-01T09:50:31;36.63;;;21.43;;
12212;SDS011;6169;44.158;22.788;2023-03-01T09:55:38;38.90;;;21.63;;
12212;SDS011;6169;44.158;22.788;2023-03-01T10:00:44;39.47;;;22.83;;
12212;SDS011;6169;44.158;22.788;2023-03-01T10:05:52;31.00;;;19.37;;
12212;SDS011;6169;44.158;22.788;2023-03-01T10:11:01;32.53;;;19.37;;
12212;SDS011;6169;44.158;22.788;2023-03-01T10:16:05;32.47;;;19.40;;
12212;SDS011;6169;44.158;22.788;2023-03-01T10:21:18;34.20;;;19.50;;
12212;SDS011;6169;44.158;22.788;2023-03-01T10:26:28;29.93;;;18.40;;
12212;SDS011;6169;44.158;22.788;2023-03-01T10:31:42;31.50;;;19.85;;
12212;SDS011;6169;44.158;22.788;2023-03-01T10:36:49;32.13;;;18.17;;
12212;SDS011;6169;44.158;22.788;2023-03-01T10:41:55;30.83;;;17.80;;
12212;SDS011;6169;44.158;22.788;2023-03-01T10:46:59;32.23;;;18.23;;
12212;SDS011;6169;44.158;22.788;2023-03-01T10:52:16;32.23;;;20.83;;
12212;SDS011;6169;44.158;22.788;2023-03-01T10:57:28;31.23;;;19.30;;
12212;SDS011;6169;44.158;22.788;2023-03-01T11:02:32;33.10;;;18.17;;
12212;SDS011;6169;44.158;22.788;2023-03-01T11:07:46;27.23;;;17.10;;
12212;SDS011;6169;44.158;22.788;2023-03-01T11:12:50;28.15;;;16.58;;
12212;SDS011;6169;44.158;22.788;2023-03-01T11:17:53;31.00;;;18.25;;
12212;SDS011;6169;44.158;22.788;2023-03-01T11:22:59;27.92;;;17.77;;
12212;SDS011;6169;44.158;22.788;2023-03-01T11:28:04;30.73;;;18.00;;
12212;SDS011;6169;44.158;22.788;2023-03-01T11:33:13;29.60;;;20.07;;
12212;SDS011;6169;44.158;22.788;2023-03-01T11:38:23;27.63;;;17.90;;
12212;SDS011;6169;44.158;22.788;2023-03-01T11:43:29;28.42;;;18.60;;
12212;SDS011;6169;44.158;22.788;2023-03-01T11:48:44;31.13;;;18.60;;
12212;SDS011;6169;44.158;22.788;2023-03-01T11:53:59;28.03;;;17.47;;
12212;SDS011;6169;44.158;22.788;2023-03-01T11:59:18;39.25;;;22.33;;
12212;SDS011;6169;44.158;22.788;2023-03-01T12:04:36;28.42;;;17.85;;
12212;SDS011;6169;44.158;22.788;2023-03-01T12:15:46;26.88;;;16.65;;
12212;SDS011;6169;44.158;22.788;2023-03-01T12:21:05;31.08;;;17.80;;
12212;SDS011;6169;44.158;22.788;2023-03-01T12:26:20;27.15;;;17.15;;
12212;SDS011;6169;44.158;22.788;2023-03-01T12:31:37;32.33;;;19.65;;
12212;SDS011;6169;44.158;22.788;2023-03-01T12:36:59;29.30;;;18.00;;
12212;SDS011;6169;44.158;22.788;2023-03-01T12:42:27;26.75;;;17.77;;
12212;SDS011;6169;44.158;22.788;2023-03-01T12:47:52;27.30;;;16.45;;
12212;SDS011;6169;44.158;22.788;2023-03-01T12:58:23;32.17;;;17.88;;
12212;SDS011;6169;44.158;22.788;2023-03-01T13:03:31;31.60;;;18.08;;
12212;SDS011;6169;44.158;22.788;2023-03-01T13:08:47;27.55;;;17.33;;
12212;SDS011;6169;44.158;22.788;2023-03-01T13:14:00;32.47;;;17.33;;
12212;SDS011;6169;44.158;22.788;2023-03-01T13:19:58;38.63;;;21.48;;
12212;SDS011;6169;44.158;22.788;2023-03-01T13:25:01;37.58;;;21.35;;
12212;SDS011;6169;44.158;22.788;2023-03-01T13:40:59;38.50;;;21.88;;
12212;SDS011;6169;44.158;22.788;2023-03-01T13:46:07;34.45;;;19.40;;
12212;SDS011;6169;44.158;22.788;2023-03-01T13:51:11;35.05;;;20.42;;
12212;SDS011;6169;44.158;22.788;2023-03-01T13:56:15;30.35;;;17.85;;
12212;SDS011;6169;44.158;22.788;2023-03-01T14:01:23;26.75;;;17.55;;
12212;SDS011;6169;44.158;22.788;2023-03-01T14:06:28;29.33;;;16.95;;
12212;SDS011;6169;44.158;22.788;2023-03-01T14:11:40;31.58;;;18.38;;
12212;SDS011;6169;44.158;22.788;2023-03-01T14:17:04;37.22;;;20.60;;
12212;SDS011;6169;44.158;22.788;2023-03-01T14:22:16;32.97;;;17.63;;
12212;SDS011;6169;44.158;22.788;2023-03-01T14:27:23;32.85;;;18.25;;
12212;SDS011;6169;44.158;22.788;2023-03-01T14:32:30;31.30;;;18.80;;
12212;SDS011;6169;44.158;22.788;2023-03-01T14:37:34;32.33;;;19.33;;
12212;SDS011;6169;44.158;22.788;2023-03-01T14:42:36;33.35;;;20.33;;
12212;SDS011;6169;44.158;22.788;2023-03-01T14:47:40;36.30;;;21.38;;
12212;SDS011;6169;44.158;22.788;2023-03-01T14:52:44;37.72;;;19.45;;
12212;SDS011;6169;44.158;22.788;2023-03-01T14:57:49;38.72;;;23.35;;
12212;SDS011;6169;44.158;22.788;2023-03-01T15:02:55;36.70;;;21.33;;
12212;SDS011;6169;44.158;22.788;2023-03-01T15:07:58;35.10;;;19.67;;
12212;SDS011;6169;44.158;22.788;2023-03-01T15:13:12;36.45;;;21.30;;
12212;SDS011;6169;44.158;22.788;2023-03-01T15:18:18;34.28;;;20.38;;
12212;SDS011;6169;44.158;22.788;2023-03-01T15:23:24;34.33;;;20.43;;
12212;SDS011;6169;44.158;22.788;2023-03-01T15:28:28;43.77;;;21.13;;
12212;SDS011;6169;44.158;22.788;2023-03-01T15:33:34;34.28;;;20.45;;
12212;SDS011;6169;44.158;22.788;2023-03-01T15:38:50;35.05;;;18.88;;
12212;SDS011;6169;44.158;22.788;2023-03-01T15:43:54;36.63;;;20.67;;
12212;SDS011;6169;44.158;22.788;2023-03-01T15:48:58;35.83;;;20.92;;
12212;SDS011;6169;44.158;22.788;2023-03-01T15:54:04;36.58;;;20.92;;
12212;SDS011;6169;44.158;22.788;2023-03-01T15:59:12;28.13;;;18.13;;
12212;SDS011;6169;44.158;22.788;2023-03-01T16:04:17;33.33;;;18.63;;
12212;SDS011;6169;44.158;22.788;2023-03-01T16:09:23;35.10;;;21.55;;
12212;SDS011;6169;44.158;22.788;2023-03-01T16:14:25;31.30;;;17.42;;
12212;SDS011;6169;44.158;22.788;2023-03-01T16:19:29;31.30;;;19.48;;
12212;SDS011;6169;44.158;22.788;2023-03-01T16:24:31;33.95;;;21.00;;
12212;SDS011;6169;44.158;22.788;2023-03-01T16:29:36;38.92;;;22.90;;
12212;SDS011;6169;44.158;22.788;2023-03-01T16:34:39;40.22;;;23.20;;
12212;SDS011;6169;44.158;22.788;2023-03-01T16:39:42;37.60;;;23.27;;
12212;SDS011;6169;44.158;22.788;2023-03-01T16:44:44;35.72;;;22.02;;
12212;SDS011;6169;44.158;22.788;2023-03-01T16:49:48;31.93;;;18.67;;
12212;SDS011;6169;44.158;22.788;2023-03-01T16:54:53;30.17;;;18.90;;
12212;SDS011;6169;44.158;22.788;2023-03-01T16:59:56;34.03;;;20.58;;
12212;SDS011;6169;44.158;22.788;2023-03-01T17:05:00;31.47;;;19.33;;
12212;SDS011;6169;44.158;22.788;2023-03-01T17:10:03;36.03;;;19.87;;
12212;SDS011;6169;44.158;22.788;2023-03-01T17:15:08;33.47;;;21.77;;
12212;SDS011;6169;44.158;22.788;2023-03-01T17:20:13;34.73;;;19.00;;
12212;SDS011;6169;44.158;22.788;2023-03-01T17:25:16;31.95;;;18.58;;
12212;SDS011;6169;44.158;22.788;2023-03-01T17:30:18;31.53;;;19.50;;
12212;SDS011;6169;44.158;22.788;2023-03-01T17:35:22;38.83;;;22.15;;
12212;SDS011;6169;44.158;22.788;2023-03-01T17:40:25;33.40;;;21.10;;
12212;SDS011;6169;44.158;22.788;2023-03-01T17:45:28;44.20;;;24.00;;
12212;SDS011;6169;44.158;22.788;2023-03-01T17:50:32;37.28;;;21.05;;
12212;SDS011;6169;44.158;22.788;2023-03-01T17:55:38;40.97;;;22.83;;
12212;SDS011;6169;44.158;22.788;2023-03-01T18:00:41;37.63;;;21.50;;
12212;SDS011;6169;44.158;22.788;2023-03-01T18:05:45;33.77;;;21.87;;
12212;SDS011;6169;44.158;22.788;2023-03-01T18:10:47;33.40;;;21.57;;
12212;SDS011;6169;44.158;22.788;2023-03-01T18:15:50;37.75;;;21.60;;
12212;SDS011;6169;44.158;22.788;2023-03-01T18:20:57;37.58;;;21.02;;
12212;SDS011;6169;44.158;22.788;2023-03-01T18:26:01;36.65;;;21.38;;
12212;SDS011;6169;44.158;22.788;2023-03-01T18:31:05;36.00;;;20.47;;
12212;SDS011;6169;44.158;22.788;2023-03-01T18:36:16;39.80;;;22.70;;
12212;SDS011;6169;44.158;22.788;2023-03-01T18:41:21;37.77;;;21.63;;
12212;SDS011;6169;44.158;22.788;2023-03-01T18:46:24;33.93;;;21.83;;
12212;SDS011;6169;44.158;22.788;2023-03-01T18:51:28;35.70;;;21.25;;
12212;SDS011;6169;44.158;22.788;2023-03-01T18:56:31;33.42;;;20.30;;
12212;SDS011;6169;44.158;22.788;2023-03-01T19:01:34;34.22;;;19.98;;
12212;SDS011;6169;44.158;22.788;2023-03-01T19:06:39;39.80;;;23.20;;
12212;SDS011;6169;44.158;22.788;2023-03-01T19:11:41;37.95;;;20.70;;
12212;SDS011;6169;44.158;22.788;2023-03-01T19:16:43;39.00;;;23.20;;
12212;SDS011;6169;44.158;22.788;2023-03-01T19:21:47;34.90;;;20.80;;
12212;SDS011;6169;44.158;22.788;2023-03-01T19:26:49;35.22;;;21.00;;
12212;SDS011;6169;44.158;22.788;2023-03-01T19:31:54;36.70;;;21.48;;
12212;SDS011;6169;44.158;22.788;2023-03-01T19:36:58;35.35;;;20.45;;
12212;SDS011;6169;44.158;22.788;2023-03-01T19:42:00;36.20;;;21.53;;
12212;SDS011;6169;44.158;22.788;2023-03-01T19:47:03;42.30;;;20.75;;
12212;SDS011;6169;44.158;22.788;2023-03-01T19:52:07;38.15;;;23.08;;
12212;SDS011;6169;44.158;22.788;2023-03-01T19:57:09;35.35;;;20.77;;
12212;SDS011;6169;44.158;22.788;2023-03-01T20:02:12;38.13;;;22.15;;
12212;SDS011;6169;44.158;22.788;2023-03-01T20:07:16;42.57;;;23.40;;
12212;SDS011;6169;44.158;22.788;2023-03-01T20:12:19;40.95;;;25.05;;
12212;SDS011;6169;44.158;22.788;2023-03-01T20:17:21;43.42;;;27.35;;
12212;SDS011;6169;44.158;22.788;2023-03-01T20:22:25;43.72;;;25.63;;
12212;SDS011;6169;44.158;22.788;2023-03-01T20:27:27;48.63;;;26.43;;
12212;SDS011;6169;44.158;22.788;2023-03-01T20:32:30;42.07;;;25.30;;
12212;SDS011;6169;44.158;22.788;2023-03-01T20:37:34;54.90;;;30.53;;
12212;SDS011;6169;44.158;22.788;2023-03-01T20:42:36;58.63;;;32.72;;
12212;SDS011;6169;44.158;22.788;2023-03-01T20:47:38;56.33;;;31.37;;
12212;SDS011;6169;44.158;22.788;2023-03-01T20:52:42;44.10;;;24.33;;
12212;SDS011;6169;44.158;22.788;2023-03-01T20:57:45;40.90;;;24.00;;
12212;SDS011;6169;44.158;22.788;2023-03-01T21:02:47;41.67;;;23.58;;
12212;SDS011;6169;44.158;22.788;2023-03-01T21:07:51;44.37;;;25.47;;
12212;SDS011;6169;44.158;22.788;2023-03-01T21:12:53;47.45;;;28.08;;
12212;SDS011;6169;44.158;22.788;2023-03-01T21:17:56;43.27;;;24.90;;
12212;SDS011;6169;44.158;22.788;2023-03-01T21:22:59;53.58;;;29.73;;
12212;SDS011;6169;44.158;22.788;2023-03-01T21:28:02;54.33;;;29.97;;
12212;SDS011;6169;44.158;22.788;2023-03-01T21:33:04;57.53;;;30.87;;
12212;SDS011;6169;44.158;22.788;2023-03-01T21:38:08;63.13;;;33.25;;
12212;SDS011;6169;44.158;22.788;2023-03-01T21:43:10;53.83;;;29.60;;
12212;SDS011;6169;44.158;22.788;2023-03-01T21:48:13;70.60;;;34.37;;
12212;SDS011;6169;44.158;22.788;2023-03-01T21:53:16;61.10;;;32.70;;
12212;SDS011;6169;44.158;22.788;2023-03-01T21:58:19;55.47;;;31.37;;
12212;SDS011;6169;44.158;22.788;2023-03-01T22:03:21;47.37;;;28.23;;
12212;SDS011;6169;44.158;22.788;2023-03-01T22:08:26;52.73;;;29.50;;
12212;SDS011;6169;44.158;22.788;2023-03-01T22:13:29;59.73;;;32.10;;
12212;SDS011;6169;44.158;22.788;2023-03-01T22:18:31;60.33;;;32.10;;
12212;SDS011;6169;44.158;22.788;2023-03-01T22:23:35;62.43;;;33.93;;
12212;SDS011;6169;44.158;22.788;2023-03-01T22:28:38;60.75;;;33.15;;
12212;SDS011;6169;44.158;22.788;2023-03-01T22:33:40;57.93;;;31.50;;
12212;SDS011;6169;44.158;22.788;2023-03-01T22:38:44;55.73;;;30.93;;
12212;SDS011;6169;44.158;22.788;2023-03-01T22:43:47;62.10;;;32.90;;
12212;SDS011;6169;44.158;22.788;2023-03-01T22:48:49;56.13;;;31.60;;
12212;SDS011;6169;44.158;22.788;2023-03-01T22:53:53;55.37;;;29.33;;
12212;SDS011;6169;44.158;22.788;2023-03-01T22:58:56;58.77;;;31.50;;
12212;SDS011;6169;44.158;22.788;2023-03-01T23:03:59;53.53;;;29.60;;
12212;SDS011;6169;44.158;22.788;2023-03-01T23:09:03;49.20;;;26.43;;
12212;SDS011;6169;44.158;22.788;2023-03-01T23:14:06;51.40;;;27.87;;
12212;SDS011;6169;44.158;22.788;2023-03-01T23:19:08;52.20;;;27.60;;
12212;SDS011;6169;44.158;22.788;2023-03-01T23:24:12;49.37;;;27.50;;
12212;SDS011;6169;44.158;22.788;2023-03-01T23:29:14;46.47;;;27.63;;
12212;SDS011;6169;44.158;22.788;2023-03-01T23:34:17;56.77;;;30.73;;
12212;SDS011;6169;44.158;22.788;2023-03-01T23:39:21;57.33;;;29.30;;
12212;SDS011;6169;44.158;22.788;2023-03-01T23:44:24;51.67;;;29.17;;
12212;SDS011;6169;44.158;22.788;2023-03-01T23:49:26;49.07;;;27.47;;
12212;SDS011;6169;44.158;22.788;2023-03-01T23:54:30;52.70;;;29.63;;
12212;SDS011;6169;44.158;22.788;2023-03-01T23:59:33;56.73;;;31.27;;
